sensor_id;sensor_type;location;lat;lon;timestamp;temperature;humidity
70676;DHT22;59069;52.242;20.900;2023-05-10T00:02:25;10.39;42.95
70676;DHT22;59069;52.242;20.900;2023-05-10T00:04:50;10.36;43.10
70676;DHT22;59069;52.242;20.900;2023-05-10T00:07:16;10.33;43.26
70676;DHT22;59069;52.242;20.900;2023-05-10T00:09:43;10.30;43.39
70676;DHT22;59069;52.242;20.900;2023-05-10T00:12:08;10.26;43.45
70676;DHT22;59069;52.242;20.900;2023-05-10T00:14:34;10.20;43.57
70676;DHT22;59069;52.242;20.900;2023-05-10T00:16:59;10.19;43.80
70676;DHT22;59069;52.242;20.900;2023-05-10T00:19:25;10.13;43.82
70676;DHT22;59069;52.242;20.900;2023-05-10T00:21:50;10.13;43.88
70676;DHT22;59069;52.242;20.900;2023-05-10T00:24:16;10.10;44.03
70676;DHT22;59069;52.242;20.900;2023-05-10T00:26:41;10.03;44.20
70676;DHT22;59069;52.242;20.900;2023-05-10T00:29:07;10.02;44.23
70676;DHT22;59069;52.242;20.900;2023-05-10T00:31:33;9.96;44.32
70676;DHT22;59069;52.242;20.900;2023-05-10T00:33:58;9.96;44.38
70676;DHT22;59069;52.242;20.900;2023-05-10T00:36:23;9.92;44.39
70676;DHT22;59069;52.242;20.900;2023-05-10T00:38:49;9.90;44.41
70676;DHT22;59069;52.242;20.900;2023-05-10T00:41:14;9.89;44.47
70676;DHT22;59069;52.242;20.900;2023-05-10T00:43:40;9.83;44.56
70676;DHT22;59069;52.242;20.900;2023-05-10T00:46:06;9.81;44.62
70676;DHT22;59069;52.242;20.900;2023-05-10T00:48:32;9.77;44.68
70676;DHT22;59069;52.242;20.900;2023-05-10T00:50:58;9.75;44.68
70676;DHT22;59069;52.242;20.900;2023-05-10T00:53:24;9.74;44.77
70676;DHT22;59069;52.242;20.900;2023-05-10T00:55:50;9.71;44.86
70676;DHT22;59069;52.242;20.900;2023-05-10T00:58:16;9.67;44.87
70676;DHT22;59069;52.242;20.900;2023-05-10T01:00:42;9.65;44.94
70676;DHT22;59069;52.242;20.900;2023-05-10T01:03:10;9.61;45.00
70676;DHT22;59069;52.242;20.900;2023-05-10T01:05:36;9.59;45.03
70676;DHT22;59069;52.242;20.900;2023-05-10T01:08:02;9.58;45.06
70676;DHT22;59069;52.242;20.900;2023-05-10T01:10:27;9.55;45.04
70676;DHT22;59069;52.242;20.900;2023-05-10T01:12:53;9.52;44.98
70676;DHT22;59069;52.242;20.900;2023-05-10T01:15:20;9.51;44.96
70676;DHT22;59069;52.242;20.900;2023-05-10T01:17:46;9.49;44.92
70676;DHT22;59069;52.242;20.900;2023-05-10T01:20:12;9.48;44.80
70676;DHT22;59069;52.242;20.900;2023-05-10T01:31:14;9.39;44.96
70676;DHT22;59069;52.242;20.900;2023-05-10T01:33:57;9.37;44.97
70676;DHT22;59069;52.242;20.900;2023-05-10T01:36:31;9.34;44.99
70676;DHT22;59069;52.242;20.900;2023-05-10T01:39:29;9.31;45.10
70676;DHT22;59069;52.242;20.900;2023-05-10T01:42:03;9.32;45.08
70676;DHT22;59069;52.242;20.900;2023-05-10T01:44:36;9.27;45.20
70676;DHT22;59069;52.242;20.900;2023-05-10T01:47:34;9.26;45.28
70676;DHT22;59069;52.242;20.900;2023-05-10T01:50:03;9.23;45.35
70676;DHT22;59069;52.242;20.900;2023-05-10T01:52:37;9.21;45.34
70676;DHT22;59069;52.242;20.900;2023-05-10T01:55:09;9.16;45.47
70676;DHT22;59069;52.242;20.900;2023-05-10T01:57:39;9.14;45.50
70676;DHT22;59069;52.242;20.900;2023-05-10T02:00:06;9.08;45.61
70676;DHT22;59069;52.242;20.900;2023-05-10T02:02:36;9.06;45.74
70676;DHT22;59069;52.242;20.900;2023-05-10T02:05:03;9.03;45.82
70676;DHT22;59069;52.242;20.900;2023-05-10T02:07:32;9.01;45.95
70676;DHT22;59069;52.242;20.900;2023-05-10T02:10:00;8.97;46.01
70676;DHT22;59069;52.242;20.900;2023-05-10T02:12:26;8.96;46.08
70676;DHT22;59069;52.242;20.900;2023-05-10T02:14:54;8.91;46.18
70676;DHT22;59069;52.242;20.900;2023-05-10T02:17:20;8.88;46.32
70676;DHT22;59069;52.242;20.900;2023-05-10T02:19:47;8.87;46.30
70676;DHT22;59069;52.242;20.900;2023-05-10T02:22:13;8.84;46.52
70676;DHT22;59069;52.242;20.900;2023-05-10T02:24:39;8.81;46.54
70676;DHT22;59069;52.242;20.900;2023-05-10T02:27:06;8.80;46.62
70676;DHT22;59069;52.242;20.900;2023-05-10T02:29:32;8.79;46.67
70676;DHT22;59069;52.242;20.900;2023-05-10T02:31:59;8.75;46.73
70676;DHT22;59069;52.242;20.900;2023-05-10T02:34:26;8.76;46.78
70676;DHT22;59069;52.242;20.900;2023-05-10T02:36:53;8.73;46.81
70676;DHT22;59069;52.242;20.900;2023-05-10T02:39:20;8.69;46.91
70676;DHT22;59069;52.242;20.900;2023-05-10T02:41:48;8.69;47.00
70676;DHT22;59069;52.242;20.900;2023-05-10T02:44:18;8.66;47.16
70676;DHT22;59069;52.242;20.900;2023-05-10T02:46:45;8.62;47.21
70676;DHT22;59069;52.242;20.900;2023-05-10T02:49:11;8.60;47.34
70676;DHT22;59069;52.242;20.900;2023-05-10T02:51:43;8.57;47.36
70676;DHT22;59069;52.242;20.900;2023-05-10T02:54:19;8.56;47.46
70676;DHT22;59069;52.242;20.900;2023-05-10T02:56:51;8.55;47.62
70676;DHT22;59069;52.242;20.900;2023-05-10T02:59:19;8.55;47.74
70676;DHT22;59069;52.242;20.900;2023-05-10T03:01:44;8.50;47.76
70676;DHT22;59069;52.242;20.900;2023-05-10T03:04:10;8.50;47.82
70676;DHT22;59069;52.242;20.900;2023-05-10T03:06:36;8.49;47.91
70676;DHT22;59069;52.242;20.900;2023-05-10T03:09:02;8.49;48.05
70676;DHT22;59069;52.242;20.900;2023-05-10T03:17:15;8.48;48.19
70676;DHT22;59069;52.242;20.900;2023-05-10T03:19:55;8.49;48.24
70676;DHT22;59069;52.242;20.900;2023-05-10T03:22:25;8.50;48.27
70676;DHT22;59069;52.242;20.900;2023-05-10T03:24:54;8.52;48.27
70676;DHT22;59069;52.242;20.900;2023-05-10T03:27:22;8.50;48.27
70676;DHT22;59069;52.242;20.900;2023-05-10T03:29:48;8.53;48.31
70676;DHT22;59069;52.242;20.900;2023-05-10T03:32:14;8.56;48.37
70676;DHT22;59069;52.242;20.900;2023-05-10T03:34:42;8.57;48.48
70676;DHT22;59069;52.242;20.900;2023-05-10T03:37:10;8.63;48.42
70676;DHT22;59069;52.242;20.900;2023-05-10T03:39:35;8.67;48.31
70676;DHT22;59069;52.242;20.900;2023-05-10T03:42:01;8.73;48.20
70676;DHT22;59069;52.242;20.900;2023-05-10T03:44:26;8.76;48.14
70676;DHT22;59069;52.242;20.900;2023-05-10T03:46:52;8.81;47.97
70676;DHT22;59069;52.242;20.900;2023-05-10T03:49:17;8.88;47.86
70676;DHT22;59069;52.242;20.900;2023-05-10T03:51:43;8.91;47.78
70676;DHT22;59069;52.242;20.900;2023-05-10T03:54:08;8.96;47.73
70676;DHT22;59069;52.242;20.900;2023-05-10T03:56:33;8.99;47.64
70676;DHT22;59069;52.242;20.900;2023-05-10T03:58:59;9.03;47.50
70676;DHT22;59069;52.242;20.900;2023-05-10T04:01:24;9.10;47.48
70676;DHT22;59069;52.242;20.900;2023-05-10T04:03:50;9.13;47.27
70676;DHT22;59069;52.242;20.900;2023-05-10T04:06:16;9.20;47.30
70676;DHT22;59069;52.242;20.900;2023-05-10T04:08:41;9.24;47.22
70676;DHT22;59069;52.242;20.900;2023-05-10T04:11:08;9.30;47.23
70676;DHT22;59069;52.242;20.900;2023-05-10T04:13:34;9.34;47.10
70676;DHT22;59069;52.242;20.900;2023-05-10T04:16:00;9.39;47.03
70676;DHT22;59069;52.242;20.900;2023-05-10T04:18:25;9.47;46.96
70676;DHT22;59069;52.242;20.900;2023-05-10T04:20:51;9.52;46.87
70676;DHT22;59069;52.242;20.900;2023-05-10T04:23:16;9.59;46.75
70676;DHT22;59069;52.242;20.900;2023-05-10T04:25:42;9.63;46.45
70676;DHT22;59069;52.242;20.900;2023-05-10T04:28:08;9.67;46.47
70676;DHT22;59069;52.242;20.900;2023-05-10T04:30:34;9.72;46.36
70676;DHT22;59069;52.242;20.900;2023-05-10T04:33:00;9.81;46.27
70676;DHT22;59069;52.242;20.900;2023-05-10T04:35:27;9.85;46.23
70676;DHT22;59069;52.242;20.900;2023-05-10T04:37:53;9.96;46.09
70676;DHT22;59069;52.242;20.900;2023-05-10T04:40:19;10.02;45.90
70676;DHT22;59069;52.242;20.900;2023-05-10T04:42:44;10.05;45.71
70676;DHT22;59069;52.242;20.900;2023-05-10T04:45:10;10.12;45.77
70676;DHT22;59069;52.242;20.900;2023-05-10T04:47:36;10.23;45.60
70676;DHT22;59069;52.242;20.900;2023-05-10T04:50:05;10.32;45.53
70676;DHT22;59069;52.242;20.900;2023-05-10T04:52:30;10.40;45.35
70676;DHT22;59069;52.242;20.900;2023-05-10T04:54:56;10.49;45.29
70676;DHT22;59069;52.242;20.900;2023-05-10T04:57:21;10.57;45.12
70676;DHT22;59069;52.242;20.900;2023-05-10T04:59:47;10.61;45.02
70676;DHT22;59069;52.242;20.900;2023-05-10T05:02:12;10.71;44.85
70676;DHT22;59069;52.242;20.900;2023-05-10T05:04:38;10.81;44.62
70676;DHT22;59069;52.242;20.900;2023-05-10T05:07:03;10.90;44.48
70676;DHT22;59069;52.242;20.900;2023-05-10T05:09:29;10.98;44.26
70676;DHT22;59069;52.242;20.900;2023-05-10T05:11:54;11.05;44.19
70676;DHT22;59069;52.242;20.900;2023-05-10T05:14:19;11.12;44.10
70676;DHT22;59069;52.242;20.900;2023-05-10T05:16:50;11.21;43.89
70676;DHT22;59069;52.242;20.900;2023-05-10T05:19:16;11.28;43.62
70676;DHT22;59069;52.242;20.900;2023-05-10T05:21:41;11.39;43.45
70676;DHT22;59069;52.242;20.900;2023-05-10T05:24:07;11.42;43.32
70676;DHT22;59069;52.242;20.900;2023-05-10T05:26:32;11.49;43.01
70676;DHT22;59069;52.242;20.900;2023-05-10T05:28:58;11.50;42.98
70676;DHT22;59069;52.242;20.900;2023-05-10T05:31:23;11.65;43.12
70676;DHT22;59069;52.242;20.900;2023-05-10T05:33:49;11.72;42.85
70676;DHT22;59069;52.242;20.900;2023-05-10T05:36:14;11.82;42.75
70676;DHT22;59069;52.242;20.900;2023-05-10T05:38:40;11.86;42.57
70676;DHT22;59069;52.242;20.900;2023-05-10T05:41:05;11.94;42.59
70676;DHT22;59069;52.242;20.900;2023-05-10T05:43:31;12.03;42.64
70676;DHT22;59069;52.242;20.900;2023-05-10T05:45:56;12.11;42.51
70676;DHT22;59069;52.242;20.900;2023-05-10T05:48:23;12.18;42.13
70676;DHT22;59069;52.242;20.900;2023-05-10T05:50:49;12.28;42.06
70676;DHT22;59069;52.242;20.900;2023-05-10T05:53:14;12.35;41.79
70676;DHT22;59069;52.242;20.900;2023-05-10T05:55:50;12.41;41.81
70676;DHT22;59069;52.242;20.900;2023-05-10T05:58:15;12.52;41.65
70676;DHT22;59069;52.242;20.900;2023-05-10T06:00:41;12.62;41.45
70676;DHT22;59069;52.242;20.900;2023-05-10T06:03:06;12.71;41.38
70676;DHT22;59069;52.242;20.900;2023-05-10T06:05:32;12.78;41.28
70676;DHT22;59069;52.242;20.900;2023-05-10T06:07:59;12.86;41.03
70676;DHT22;59069;52.242;20.900;2023-05-10T06:10:26;12.92;40.97
70676;DHT22;59069;52.242;20.900;2023-05-10T06:12:51;12.97;41.01
70676;DHT22;59069;52.242;20.900;2023-05-10T06:15:17;13.07;40.71
70676;DHT22;59069;52.242;20.900;2023-05-10T06:17:43;13.12;40.73
70676;DHT22;59069;52.242;20.900;2023-05-10T06:20:09;13.24;40.74
70676;DHT22;59069;52.242;20.900;2023-05-10T06:22:35;13.40;40.84
70676;DHT22;59069;52.242;20.900;2023-05-10T06:25:00;13.50;40.69
70676;DHT22;59069;52.242;20.900;2023-05-10T06:27:27;13.60;40.41
70676;DHT22;59069;52.242;20.900;2023-05-10T06:29:52;13.73;40.35
70676;DHT22;59069;52.242;20.900;2023-05-10T06:32:17;13.85;40.12
70676;DHT22;59069;52.242;20.900;2023-05-10T06:34:43;14.01;40.13
70676;DHT22;59069;52.242;20.900;2023-05-10T06:37:09;14.15;39.88
70676;DHT22;59069;52.242;20.900;2023-05-10T06:39:35;14.26;39.18
70676;DHT22;59069;52.242;20.900;2023-05-10T06:42:01;14.30;38.75
70676;DHT22;59069;52.242;20.900;2023-05-10T06:44:29;14.39;38.88
70676;DHT22;59069;52.242;20.900;2023-05-10T06:46:55;14.46;38.72
70676;DHT22;59069;52.242;20.900;2023-05-10T06:49:21;14.59;38.57
70676;DHT22;59069;52.242;20.900;2023-05-10T06:51:46;14.72;38.42
70676;DHT22;59069;52.242;20.900;2023-05-10T06:54:12;14.84;38.15
70676;DHT22;59069;52.242;20.900;2023-05-10T06:56:38;14.93;37.72
70676;DHT22;59069;52.242;20.900;2023-05-10T06:59:03;14.98;37.39
70676;DHT22;59069;52.242;20.900;2023-05-10T07:01:28;15.04;36.96
70676;DHT22;59069;52.242;20.900;2023-05-10T07:03:54;15.12;36.52
70676;DHT22;59069;52.242;20.900;2023-05-10T07:06:19;15.21;36.58
70676;DHT22;59069;52.242;20.900;2023-05-10T07:08:45;15.42;36.43
70676;DHT22;59069;52.242;20.900;2023-05-10T07:11:10;15.56;35.89
70676;DHT22;59069;52.242;20.900;2023-05-10T07:13:36;15.62;35.33
70676;DHT22;59069;52.242;20.900;2023-05-10T07:16:01;15.75;35.60
70676;DHT22;59069;52.242;20.900;2023-05-10T07:18:27;15.83;35.24
70676;DHT22;59069;52.242;20.900;2023-05-10T07:20:53;15.97;35.28
70676;DHT22;59069;52.242;20.900;2023-05-10T07:23:18;16.13;35.29
70676;DHT22;59069;52.242;20.900;2023-05-10T07:25:46;16.30;34.53
70676;DHT22;59069;52.242;20.900;2023-05-10T07:28:12;16.27;33.75
70676;DHT22;59069;52.242;20.900;2023-05-10T07:30:37;16.20;33.34
70676;DHT22;59069;52.242;20.900;2023-05-10T07:33:03;16.14;33.46
70676;DHT22;59069;52.242;20.900;2023-05-10T07:35:28;16.34;33.61
70676;DHT22;59069;52.242;20.900;2023-05-10T07:37:54;16.48;33.30
70676;DHT22;59069;52.242;20.900;2023-05-10T07:40:19;16.70;33.23
70676;DHT22;59069;52.242;20.900;2023-05-10T07:42:45;16.77;32.13
70676;DHT22;59069;52.242;20.900;2023-05-10T07:45:10;16.75;31.35
70676;DHT22;59069;52.242;20.900;2023-05-10T07:47:36;16.84;30.66
70676;DHT22;59069;52.242;20.900;2023-05-10T07:50:01;16.85;29.61
70676;DHT22;59069;52.242;20.900;2023-05-10T07:52:27;16.87;29.11
70676;DHT22;59069;52.242;20.900;2023-05-10T07:54:52;17.04;29.27
70676;DHT22;59069;52.242;20.900;2023-05-10T07:57:18;17.19;29.01
70676;DHT22;59069;52.242;20.900;2023-05-10T07:59:44;17.25;28.03
70676;DHT22;59069;52.242;20.900;2023-05-10T08:02:10;17.33;28.12
70676;DHT22;59069;52.242;20.900;2023-05-10T08:04:36;17.32;27.57
70676;DHT22;59069;52.242;20.900;2023-05-10T08:07:01;17.22;27.32
70676;DHT22;59069;52.242;20.900;2023-05-10T08:09:26;17.19;27.41
70676;DHT22;59069;52.242;20.900;2023-05-10T08:11:52;17.28;27.77
70676;DHT22;59069;52.242;20.900;2023-05-10T08:14:17;17.35;27.79
70676;DHT22;59069;52.242;20.900;2023-05-10T08:16:43;17.40;27.63
70676;DHT22;59069;52.242;20.900;2023-05-10T08:19:08;17.47;27.90
70676;DHT22;59069;52.242;20.900;2023-05-10T08:21:34;17.59;27.41
70676;DHT22;59069;52.242;20.900;2023-05-10T08:23:59;17.67;27.27
70676;DHT22;59069;52.242;20.900;2023-05-10T08:26:25;17.70;26.96
70676;DHT22;59069;52.242;20.900;2023-05-10T08:28:51;17.76;27.05
70676;DHT22;59069;52.242;20.900;2023-05-10T08:31:16;17.83;26.93
70676;DHT22;59069;52.242;20.900;2023-05-10T08:33:42;17.83;26.32
70676;DHT22;59069;52.242;20.900;2023-05-10T08:36:07;17.84;26.51
70676;DHT22;59069;52.242;20.900;2023-05-10T08:38:33;17.91;26.08
70676;DHT22;59069;52.242;20.900;2023-05-10T08:40:58;17.91;26.06
70676;DHT22;59069;52.242;20.900;2023-05-10T08:43:29;17.90;25.68
70676;DHT22;59069;52.242;20.900;2023-05-10T08:45:55;17.90;25.51
70676;DHT22;59069;52.242;20.900;2023-05-10T08:48:24;17.91;25.79
70676;DHT22;59069;52.242;20.900;2023-05-10T08:50:52;18.10;26.46
70676;DHT22;59069;52.242;20.900;2023-05-10T08:53:18;18.28;25.97
70676;DHT22;59069;52.242;20.900;2023-05-10T08:55:44;18.32;25.56
70676;DHT22;59069;52.242;20.900;2023-05-10T08:58:10;18.49;25.86
70676;DHT22;59069;52.242;20.900;2023-05-10T09:00:36;18.56;25.25
70676;DHT22;59069;52.242;20.900;2023-05-10T09:03:03;18.61;24.81
70676;DHT22;59069;52.242;20.900;2023-05-10T09:05:29;18.49;25.57
70676;DHT22;59069;52.242;20.900;2023-05-10T09:07:55;18.69;27.37
70676;DHT22;59069;52.242;20.900;2023-05-10T09:10:21;19.00;26.08
70676;DHT22;59069;52.242;20.900;2023-05-10T09:12:48;19.31;25.89
70676;DHT22;59069;52.242;20.900;2023-05-10T09:15:18;19.65;25.75
70676;DHT22;59069;52.242;20.900;2023-05-10T09:17:45;19.68;23.65
70676;DHT22;59069;52.242;20.900;2023-05-10T09:20:11;19.78;24.27
70676;DHT22;59069;52.242;20.900;2023-05-10T09:22:36;20.02;24.25
70676;DHT22;59069;52.242;20.900;2023-05-10T09:25:11;20.13;23.40
70676;DHT22;59069;52.242;20.900;2023-05-10T09:27:39;20.37;24.87
70676;DHT22;59069;52.242;20.900;2023-05-10T09:30:06;20.67;22.38
70676;DHT22;59069;52.242;20.900;2023-05-10T09:32:46;20.88;21.64
70676;DHT22;59069;52.242;20.900;2023-05-10T09:35:15;20.97;22.33
70676;DHT22;59069;52.242;20.900;2023-05-10T09:37:45;21.07;21.60
70676;DHT22;59069;52.242;20.900;2023-05-10T09:40:18;21.11;22.18
70676;DHT22;59069;52.242;20.900;2023-05-10T09:43:00;21.17;21.03
70676;DHT22;59069;52.242;20.900;2023-05-10T09:45:28;20.98;21.31
70676;DHT22;59069;52.242;20.900;2023-05-10T09:47:55;20.81;22.22
70676;DHT22;59069;52.242;20.900;2023-05-10T09:50:21;20.77;22.90
70676;DHT22;59069;52.242;20.900;2023-05-10T09:52:48;20.77;23.05
70676;DHT22;59069;52.242;20.900;2023-05-10T09:55:14;20.66;22.57
70676;DHT22;59069;52.242;20.900;2023-05-10T09:57:40;20.66;23.06
70676;DHT22;59069;52.242;20.900;2023-05-10T10:00:06;20.70;22.75
70676;DHT22;59069;52.242;20.900;2023-05-10T10:02:32;20.79;22.98
70676;DHT22;59069;52.242;20.900;2023-05-10T10:05:00;20.84;23.31
70676;DHT22;59069;52.242;20.900;2023-05-10T10:07:27;20.98;23.50
70676;DHT22;59069;52.242;20.900;2023-05-10T10:09:53;21.27;24.23
70676;DHT22;59069;52.242;20.900;2023-05-10T10:12:19;21.72;23.65
70676;DHT22;59069;52.242;20.900;2023-05-10T10:14:48;21.85;21.87
70676;DHT22;59069;52.242;20.900;2023-05-10T10:17:16;21.89;22.51
70676;DHT22;59069;52.242;20.900;2023-05-10T10:19:42;21.99;21.52
70676;DHT22;59069;52.242;20.900;2023-05-10T10:22:07;22.13;21.63
70676;DHT22;59069;52.242;20.900;2023-05-10T10:24:33;22.32;21.69
70676;DHT22;59069;52.242;20.900;2023-05-10T10:29:49;22.71;20.89
70676;DHT22;59069;52.242;20.900;2023-05-10T10:32:35;22.67;21.14
70676;DHT22;59069;52.242;20.900;2023-05-10T10:35:04;22.78;21.46
70676;DHT22;59069;52.242;20.900;2023-05-10T10:37:46;23.25;22.89
70676;DHT22;59069;52.242;20.900;2023-05-10T10:40:32;24.47;21.42
70676;DHT22;59069;52.242;20.900;2023-05-10T10:43:24;25.06;19.41
70676;DHT22;59069;52.242;20.900;2023-05-10T10:46:13;25.24;18.08
70676;DHT22;59069;52.242;20.900;2023-05-10T10:48:40;24.89;18.34
70676;DHT22;59069;52.242;20.900;2023-05-10T10:51:05;24.51;18.64
70676;DHT22;59069;52.242;20.900;2023-05-10T10:53:32;24.04;18.66
70676;DHT22;59069;52.242;20.900;2023-05-10T10:56:06;23.69;18.84
70676;DHT22;59069;52.242;20.900;2023-05-10T10:58:33;23.36;19.37
70676;DHT22;59069;52.242;20.900;2023-05-10T11:01:18;23.05;19.62
70676;DHT22;59069;52.242;20.900;2023-05-10T11:06:32;22.26;20.41
70676;DHT22;59069;52.242;20.900;2023-05-10T11:08:59;22.03;20.75
70676;DHT22;59069;52.242;20.900;2023-05-10T11:11:25;21.59;20.81
70676;DHT22;59069;52.242;20.900;2023-05-10T11:13:51;21.32;21.35
70676;DHT22;59069;52.242;20.900;2023-05-10T11:16:23;21.12;21.63
70676;DHT22;59069;52.242;20.900;2023-05-10T11:19:08;20.91;22.07
70676;DHT22;59069;52.242;20.900;2023-05-10T11:24:20;20.97;22.63
70676;DHT22;59069;52.242;20.900;2023-05-10T11:26:45;21.25;22.32
70676;DHT22;59069;52.242;20.900;2023-05-10T11:29:12;21.56;21.86
70676;DHT22;59069;52.242;20.900;2023-05-10T11:31:44;21.81;22.77
70676;DHT22;59069;52.242;20.900;2023-05-10T11:34:10;22.34;22.12
70676;DHT22;59069;52.242;20.900;2023-05-10T11:36:36;23.05;21.84
70676;DHT22;59069;52.242;20.900;2023-05-10T11:39:02;23.32;20.02
70676;DHT22;59069;52.242;20.900;2023-05-10T11:41:29;23.50;20.33
70676;DHT22;59069;52.242;20.900;2023-05-10T11:43:56;23.74;19.73
70676;DHT22;59069;52.242;20.900;2023-05-10T11:46:24;24.18;20.86
70676;DHT22;59069;52.242;20.900;2023-05-10T11:48:52;24.79;19.63
70676;DHT22;59069;52.242;20.900;2023-05-10T11:51:22;25.94;20.54
70676;DHT22;59069;52.242;20.900;2023-05-10T11:53:49;26.62;17.56
70676;DHT22;59069;52.242;20.900;2023-05-10T11:56:15;26.32;17.73
70676;DHT22;59069;52.242;20.900;2023-05-10T11:58:41;26.86;17.90
70676;DHT22;59069;52.242;20.900;2023-05-10T12:01:07;27.31;17.72
70676;DHT22;59069;52.242;20.900;2023-05-10T12:03:34;28.17;17.61
70676;DHT22;59069;52.242;20.900;2023-05-10T12:06:01;28.73;17.76
70676;DHT22;59069;52.242;20.900;2023-05-10T12:08:28;29.66;15.97
70676;DHT22;59069;52.242;20.900;2023-05-10T12:11:06;30.20;15.18
70676;DHT22;59069;52.242;20.900;2023-05-10T12:13:32;30.21;14.13
70676;DHT22;59069;52.242;20.900;2023-05-10T12:16:16;29.52;15.49
70676;DHT22;59069;52.242;20.900;2023-05-10T12:18:41;29.24;15.14
70676;DHT22;59069;52.242;20.900;2023-05-10T12:21:12;28.91;15.20
70676;DHT22;59069;52.242;20.900;2023-05-10T12:23:39;28.39;15.59
70676;DHT22;59069;52.242;20.900;2023-05-10T12:26:05;28.06;15.82
70676;DHT22;59069;52.242;20.900;2023-05-10T12:28:32;27.47;16.00
70676;DHT22;59069;52.242;20.900;2023-05-10T12:30:58;26.76;16.75
70676;DHT22;59069;52.242;20.900;2023-05-10T12:33:24;26.11;16.69
70676;DHT22;59069;52.242;20.900;2023-05-10T12:35:52;25.57;17.88
70676;DHT22;59069;52.242;20.900;2023-05-10T12:38:32;25.22;18.33
70676;DHT22;59069;52.242;20.900;2023-05-10T12:41:00;25.06;18.45
70676;DHT22;59069;52.242;20.900;2023-05-10T12:43:26;25.08;19.05
70676;DHT22;59069;52.242;20.900;2023-05-10T12:45:52;25.37;19.69
70676;DHT22;59069;52.242;20.900;2023-05-10T12:48:18;25.77;18.50
70676;DHT22;59069;52.242;20.900;2023-05-10T12:50:43;25.98;18.48
70676;DHT22;59069;52.242;20.900;2023-05-10T12:53:09;25.91;18.58
70676;DHT22;59069;52.242;20.900;2023-05-10T12:55:34;26.11;18.37
70676;DHT22;59069;52.242;20.900;2023-05-10T12:58:00;26.82;17.96
70676;DHT22;59069;52.242;20.900;2023-05-10T13:00:25;28.05;18.12
70676;DHT22;59069;52.242;20.900;2023-05-10T13:02:51;29.53;16.96
70676;DHT22;59069;52.242;20.900;2023-05-10T13:05:16;30.54;15.12
70676;DHT22;59069;52.242;20.900;2023-05-10T13:07:42;31.30;15.22
70676;DHT22;59069;52.242;20.900;2023-05-10T13:10:09;32.03;14.65
70676;DHT22;59069;52.242;20.900;2023-05-10T13:12:35;32.65;14.32
70676;DHT22;59069;52.242;20.900;2023-05-10T13:15:01;32.66;13.34
70676;DHT22;59069;52.242;20.900;2023-05-10T13:17:27;32.58;13.56
70676;DHT22;59069;52.242;20.900;2023-05-10T13:19:53;32.46;13.47
70676;DHT22;59069;52.242;20.900;2023-05-10T13:22:18;32.56;13.91
70676;DHT22;59069;52.242;20.900;2023-05-10T13:24:43;32.28;13.93
70676;DHT22;59069;52.242;20.900;2023-05-10T13:27:09;32.00;13.79
70676;DHT22;59069;52.242;20.900;2023-05-10T13:29:35;31.59;13.94
70676;DHT22;59069;52.242;20.900;2023-05-10T13:32:00;31.45;14.29
70676;DHT22;59069;52.242;20.900;2023-05-10T13:34:26;31.77;14.10
70676;DHT22;59069;52.242;20.900;2023-05-10T13:36:52;31.67;14.01
70676;DHT22;59069;52.242;20.900;2023-05-10T13:39:20;31.45;14.31
70676;DHT22;59069;52.242;20.900;2023-05-10T13:41:45;31.60;14.27
70676;DHT22;59069;52.242;20.900;2023-05-10T13:44:12;31.51;14.12
70676;DHT22;59069;52.242;20.900;2023-05-10T13:46:39;30.86;14.23
70676;DHT22;59069;52.242;20.900;2023-05-10T13:49:05;30.09;14.37
70676;DHT22;59069;52.242;20.900;2023-05-10T13:51:30;29.48;15.03
70676;DHT22;59069;52.242;20.900;2023-05-10T13:53:57;28.75;14.93
70676;DHT22;59069;52.242;20.900;2023-05-10T13:56:23;28.36;16.27
70676;DHT22;59069;52.242;20.900;2023-05-10T13:58:48;28.17;15.89
70676;DHT22;59069;52.242;20.900;2023-05-10T14:01:14;27.92;16.23
70676;DHT22;59069;52.242;20.900;2023-05-10T14:03:40;27.37;16.02
70676;DHT22;59069;52.242;20.900;2023-05-10T14:06:05;26.89;16.46
70676;DHT22;59069;52.242;20.900;2023-05-10T14:08:32;26.43;16.49
70676;DHT22;59069;52.242;20.900;2023-05-10T14:10:58;25.94;16.63
70676;DHT22;59069;52.242;20.900;2023-05-10T14:13:23;25.43;17.32
70676;DHT22;59069;52.242;20.900;2023-05-10T14:15:49;24.98;17.68
70676;DHT22;59069;52.242;20.900;2023-05-10T14:18:15;24.61;18.33
70676;DHT22;59069;52.242;20.900;2023-05-10T14:20:40;24.38;18.62
70676;DHT22;59069;52.242;20.900;2023-05-10T14:23:06;24.29;19.10
70676;DHT22;59069;52.242;20.900;2023-05-10T14:25:31;24.16;19.26
70676;DHT22;59069;52.242;20.900;2023-05-10T14:27:57;23.87;19.38
70676;DHT22;59069;52.242;20.900;2023-05-10T14:30:22;23.42;19.63
70676;DHT22;59069;52.242;20.900;2023-05-10T14:32:48;23.08;19.85
70676;DHT22;59069;52.242;20.900;2023-05-10T14:35:13;22.90;20.53
70676;DHT22;59069;52.242;20.900;2023-05-10T14:37:39;22.74;20.77
70676;DHT22;59069;52.242;20.900;2023-05-10T14:40:06;22.51;21.01
70676;DHT22;59069;52.242;20.900;2023-05-10T14:42:32;22.32;21.52
70676;DHT22;59069;52.242;20.900;2023-05-10T14:44:57;22.20;21.58
70676;DHT22;59069;52.242;20.900;2023-05-10T14:47:23;22.05;21.86
70676;DHT22;59069;52.242;20.900;2023-05-10T14:49:49;22.03;22.06
70676;DHT22;59069;52.242;20.900;2023-05-10T14:52:14;22.05;22.06
70676;DHT22;59069;52.242;20.900;2023-05-10T14:54:40;22.03;21.93
70676;DHT22;59069;52.242;20.900;2023-05-10T14:57:06;21.89;22.00
70676;DHT22;59069;52.242;20.900;2023-05-10T14:59:32;21.74;22.29
70676;DHT22;59069;52.242;20.900;2023-05-10T15:01:57;21.63;22.68
70676;DHT22;59069;52.242;20.900;2023-05-10T15:04:23;21.66;22.56
70676;DHT22;59069;52.242;20.900;2023-05-10T15:06:48;21.69;22.58
70676;DHT22;59069;52.242;20.900;2023-05-10T15:09:13;21.66;22.48
70676;DHT22;59069;52.242;20.900;2023-05-10T15:11:40;21.66;22.48
70676;DHT22;59069;52.242;20.900;2023-05-10T15:14:06;21.54;22.41
70676;DHT22;59069;52.242;20.900;2023-05-10T15:16:31;21.31;22.46
70676;DHT22;59069;52.242;20.900;2023-05-10T15:18:57;21.15;22.68
70676;DHT22;59069;52.242;20.900;2023-05-10T15:21:22;21.15;22.86
70676;DHT22;59069;52.242;20.900;2023-05-10T15:23:47;21.08;22.93
70676;DHT22;59069;52.242;20.900;2023-05-10T15:26:13;20.97;23.29
70676;DHT22;59069;52.242;20.900;2023-05-10T15:28:39;20.88;23.35
70676;DHT22;59069;52.242;20.900;2023-05-10T15:31:04;20.91;23.37
70676;DHT22;59069;52.242;20.900;2023-05-10T15:33:30;21.49;23.00
70676;DHT22;59069;52.242;20.900;2023-05-10T15:35:55;22.36;22.49
70676;DHT22;59069;52.242;20.900;2023-05-10T15:38:21;22.68;22.69
70676;DHT22;59069;52.242;20.900;2023-05-10T15:40:46;22.37;21.90
70676;DHT22;59069;52.242;20.900;2023-05-10T15:43:12;22.05;21.96